| time (UTC) | temp C | wind direction | speed KPH | gust KPH | rain 1hr cm | rain 24hr cm | rain mn cm | humidity % | barometer mb |
| 20260506002515 | 21 | 250 | 30.6 | 54.7 | 0.00 | 0.05 | 0.05 | 26 | 1018.7 |
| 20260506002015 | 21 | 242 | 32.2 | 53.1 | 0.00 | 0.05 | 0.05 | 24 | 1018.8 |
| 20260506001515 | 21 | 248 | 29.0 | 48.3 | 0.00 | 0.05 | 0.05 | 25 | 1018.8 |
| 20260506001015 | 21 | 248 | 29.0 | 48.3 | 0.00 | 0.05 | 0.05 | 26 | 1018.9 |
| 20260506000535 | 21 | 249 | 32.2 | 51.5 | 0.00 | 0.05 | 0.05 | 25 | 1018.8 |
| 20260506000015 | 21 | 248 | 27.4 | 46.7 | 0.00 | 0.05 | 0.05 | 26 | 1018.8 |
| 20260505235515 | 21 | 248 | 29.0 | 49.9 | 0.00 | 0.05 | 0.05 | 25 | 1018.8 |
| 20260505235015 | 21 | 245 | 32.2 | 56.3 | 0.00 | 0.05 | 0.05 | 25 | 1018.9 |
| 20260505234555 | 21 | 251 | 30.6 | 51.5 | 0.00 | 0.05 | 0.05 | 24 | 1018.8 |
| 20260505234015 | 21 | 236 | 27.4 | 48.3 | 0.00 | 0.05 | 0.05 | 25 | 1019.0 |
| 20260505233515 | 21 | 248 | 24.1 | 45.1 | 0.00 | 0.05 | 0.05 | 23 | 1019.1 |
| 20260505233015 | 21 | 240 | 27.4 | 43.5 | 0.00 | 0.05 | 0.05 | 23 | 1019.3 |
| 20260505232515 | 21 | 238 | 30.6 | 54.7 | 0.00 | 0.05 | 0.05 | 24 | 1019.3 |
| 20260505232015 | 22 | 245 | 29.0 | 53.1 | 0.00 | 0.05 | 0.05 | 25 | 1019.3 |
| 20260505231535 | 22 | 249 | 27.4 | 49.9 | 0.00 | 0.05 | 0.05 | 26 | 1019.4 |
| 20260505231035 | 21 | 244 | 25.7 | 43.5 | 0.00 | 0.05 | 0.05 | 28 | 1019.3 |
| 20260505230515 | 22 | 245 | 27.4 | 51.5 | 0.00 | 0.05 | 0.05 | 27 | 1019.4 |
| 20260505230015 | 21 | 241 | 29.0 | 51.5 | 0.00 | 0.05 | 0.05 | 27 | 1019.2 |
| 20260505225515 | 21 | 247 | 29.0 | 46.7 | 0.00 | 0.05 | 0.05 | 27 | 1019.4 |
| 20260505225015 | 21 | 230 | 22.5 | 45.1 | 0.00 | 0.05 | 0.05 | 28 | 1019.5 |
| 20260505224515 | 21 | 250 | 29.0 | 48.3 | 0.00 | 0.05 | 0.05 | 28 | 1019.5 |
| 20260505224015 | 21 | 255 | 35.4 | 54.7 | 0.00 | 0.05 | 0.05 | 26 | 1019.4 |
| 20260505223515 | 22 | 246 | 30.6 | 54.7 | 0.00 | 0.05 | 0.05 | 27 | 1019.6 |
| 20260505223035 | 22 | 256 | 29.0 | 54.7 | 0.00 | 0.05 | 0.05 | 27 | 1019.9 |
| 20260505222515 | 21 | 225 | 29.0 | 56.3 | 0.00 | 0.05 | 0.05 | 28 | 1020.1 |
| 20260505222015 | 22 | 235 | 27.4 | 46.7 | 0.00 | 0.05 | 0.05 | 27 | 1020.1 |
| 20260505221515 | 22 | 242 | 20.9 | 37.0 | 0.00 | 0.05 | 0.05 | 27 | 1020.1 |
| 20260505221035 | 21 | 213 | 22.5 | 45.1 | 0.00 | 0.05 | 0.05 | 32 | 1020.2 |
| 20260505220515 | 21 | 216 | 24.1 | 37.0 | 0.00 | 0.05 | 0.05 | 33 | 1020.0 |
| 20260505220035 | 21 | 216 | 22.5 | 40.2 | 0.00 | 0.05 | 0.05 | 33 | 1020.3 |
| 20260505215515 | 21 | 225 | 24.1 | 41.8 | 0.00 | 0.05 | 0.05 | 33 | 1020.3 |
| 20260505215015 | 21 | 234 | 19.3 | 30.6 | 0.00 | 0.05 | 0.05 | 34 | 1020.5 |
| 20260505214555 | 20 | 236 | 22.5 | 35.4 | 0.00 | 0.05 | 0.05 | 37 | 1020.4 |
| 20260505214055 | 20 | 220 | 22.5 | 40.2 | 0.00 | 0.05 | 0.05 | 37 | 1020.5 |
| 20260505213515 | 20 | 220 | 22.5 | 45.1 | 0.00 | 0.05 | 0.05 | 37 | 1020.7 |
| 20260505213035 | 21 | 214 | 29.0 | 48.3 | 0.00 | 0.05 | 0.05 | 37 | 1021.0 |
| 20260505212515 | 21 | 231 | 20.9 | 35.4 | 0.00 | 0.05 | 0.05 | 39 | 1021.1 |
| 20260505212016 | 21 | 207 | 25.7 | 53.1 | 0.00 | 0.05 | 0.05 | 38 | 1021.1 |
| 20260505211515 | 20 | 204 | 27.4 | 45.1 | 0.00 | 0.05 | 0.05 | 37 | 1021.0 |
| 20260505211015 | 21 | 211 | 24.1 | 43.5 | 0.00 | 0.05 | 0.05 | 36 | 1021.3 |
| 20260505210515 | 21 | 225 | 25.7 | 40.2 | 0.00 | 0.05 | 0.05 | 34 | 1021.4 |
| 20260505210015 | 21 | 211 | 22.5 | 49.9 | 0.00 | 0.05 | 0.05 | 33 | 1021.4 |
| 20260505205515 | 21 | 229 | 24.1 | 40.2 | 0.00 | 0.05 | 0.05 | 35 | 1021.4 |
| 20260505205015 | 21 | 218 | 22.5 | 37.0 | 0.00 | 0.05 | 0.05 | 37 | 1021.5 |
| 20260505204515 | 20 | 220 | 24.1 | 49.9 | 0.00 | 0.05 | 0.05 | 36 | 1021.4 |
| 20260505204015 | 21 | 232 | 27.4 | 45.1 | 0.00 | 0.05 | 0.05 | 34 | 1021.6 |
| 20260505203515 | 20 | 217 | 25.7 | 43.5 | 0.00 | 0.05 | 0.05 | 37 | 1021.4 |
| 20260505203015 | 20 | 218 | 25.7 | 49.9 | 0.00 | 0.05 | 0.05 | 36 | 1021.6 |
| 20260505202515 | 20 | 238 | 25.7 | 48.3 | 0.00 | 0.05 | 0.05 | 37 | 1021.7 |
| 20260505202015 | 20 | 235 | 22.5 | 43.5 | 0.00 | 0.05 | 0.05 | 38 | 1021.7 |
| 20260505201515 | 20 | 223 | 27.4 | 48.3 | 0.00 | 0.05 | 0.05 | 39 | 1021.7 |
| 20260505201015 | 20 | 199 | 24.1 | 45.1 | 0.00 | 0.05 | 0.05 | 42 | 1021.6 |
| 20260505200515 | 20 | 206 | 20.9 | 40.2 | 0.00 | 0.05 | 0.05 | 45 | 1021.7 |
| 20260505200015 | 18 | 183 | 24.1 | 41.8 | 0.00 | 0.05 | 0.05 | 47 | 1021.5 |
| 20260505195515 | 19 | 206 | 25.7 | 45.1 | 0.00 | 0.05 | 0.05 | 44 | 1021.9 |
| 20260505195015 | 19 | 205 | 24.1 | 40.2 | 0.00 | 0.05 | 0.05 | 44 | 1022.0 |
| 20260505194535 | 19 | 198 | 24.1 | 43.5 | 0.00 | 0.05 | 0.05 | 48 | 1022.0 |
| 20260505194015 | 19 | 194 | 20.9 | 32.2 | 0.00 | 0.05 | 0.05 | 47 | 1022.1 |
| 20260505193515 | 19 | 199 | 20.9 | 35.4 | 0.00 | 0.05 | 0.05 | 48 | 1022.1 |
| 20260505193015 | 18 | 204 | 24.1 | 35.4 | 0.00 | 0.05 | 0.05 | 50 | 1021.9 |
| 20260505192515 | 18 | 197 | 20.9 | 33.8 | 0.00 | 0.05 | 0.05 | 51 | 1021.9 |
| 20260505192015 | 18 | 193 | 24.1 | 37.0 | 0.00 | 0.05 | 0.05 | 50 | 1021.9 |
| 20260505191515 | 18 | 194 | 22.5 | 40.2 | 0.00 | 0.05 | 0.05 | 50 | 1022.4 |
| 20260505191015 | 18 | 211 | 17.7 | 32.2 | 0.00 | 0.05 | 0.05 | 52 | 1022.3 |
| 20260505190515 | 18 | 211 | 19.3 | 33.8 | 0.00 | 0.05 | 0.05 | 53 | 1022.4 |
| 20260505190015 | 18 | 201 | 17.7 | 38.6 | 0.00 | 0.05 | 0.05 | 54 | 1022.2 |
| 20260505185515 | 18 | 177 | 19.3 | 32.2 | 0.00 | 0.05 | 0.05 | 56 | 1022.3 |
| 20260505185015 | 18 | 204 | 20.9 | 32.2 | 0.00 | 0.05 | 0.05 | 53 | 1022.3 |
| 20260505184535 | 18 | 179 | 19.3 | 30.6 | 0.00 | 0.05 | 0.05 | 54 | 1022.5 |
| 20260505184015 | 18 | 190 | 17.7 | 30.6 | 0.00 | 0.05 | 0.05 | 55 | 1022.5 |
| 20260505183515 | 18 | 210 | 16.1 | 35.4 | 0.00 | 0.05 | 0.05 | 53 | 1022.4 |
| 20260505183015 | 18 | 202 | 22.5 | 38.6 | 0.00 | 0.05 | 0.05 | 54 | 1022.6 |
| 20260505182515 | 18 | 194 | 17.7 | 38.6 | 0.00 | 0.05 | 0.05 | 57 | 1022.7 |
| 20260505182035 | 17 | 191 | 16.1 | 30.6 | 0.00 | 0.05 | 0.05 | 57 | 1022.5 |
| 20260505181515 | 17 | 195 | 20.9 | 37.0 | 0.00 | 0.05 | 0.05 | 59 | 1022.6 |
| 20260505181015 | 16 | 195 | 19.3 | 33.8 | 0.00 | 0.05 | 0.05 | 61 | 1022.4 |
| 20260505180515 | 16 | 193 | 24.1 | 37.0 | 0.00 | 0.05 | 0.05 | 60 | 1022.3 |
| 20260505180015 | 17 | 189 | 24.1 | 40.2 | 0.00 | 0.05 | 0.05 | 59 | 1022.5 |
| 20260505175535 | 17 | 195 | 20.9 | 38.6 | 0.00 | 0.05 | 0.05 | 60 | 1022.5 |
| 20260505175015 | 16 | 197 | 19.3 | 35.4 | 0.00 | 0.05 | 0.05 | 61 | 1022.4 |
| 20260505174515 | 16 | 206 | 19.3 | 30.6 | 0.00 | 0.05 | 0.05 | 61 | 1022.3 |
| 20260505174015 | 16 | 195 | 19.3 | 30.6 | 0.00 | 0.05 | 0.05 | 62 | 1022.3 |
| 20260505173515 | 16 | 199 | 17.7 | 33.8 | 0.00 | 0.05 | 0.05 | 61 | 1022.3 |
| 20260505173015 | 16 | 207 | 17.7 | 29.0 | 0.00 | 0.05 | 0.05 | 62 | 1022.4 |
| 20260505172515 | 16 | 200 | 20.9 | 32.2 | 0.00 | 0.05 | 0.05 | 62 | 1022.4 |
| 20260505172015 | 16 | 208 | 17.7 | 27.4 | 0.00 | 0.05 | 0.05 | 61 | 1022.4 |
| 20260505171535 | 16 | 200 | 20.9 | 32.2 | 0.00 | 0.05 | 0.05 | 61 | 1022.4 |
| 20260505171015 | 16 | 198 | 20.9 | 35.4 | 0.00 | 0.05 | 0.05 | 60 | 1022.4 |
| 20260505170515 | 16 | 201 | 20.9 | 37.0 | 0.00 | 0.05 | 0.05 | 60 | 1022.4 |
| 20260505170015 | 16 | 207 | 19.3 | 33.8 | 0.00 | 0.05 | 0.05 | 60 | 1022.6 |
| 20260505165515 | 16 | 208 | 14.5 | 35.4 | 0.00 | 0.05 | 0.05 | 60 | 1022.5 |
| 20260505165015 | 16 | 201 | 14.5 | 25.7 | 0.00 | 0.05 | 0.05 | 62 | 1022.3 |
| 20260505164515 | 16 | 206 | 20.9 | 37.0 | 0.00 | 0.05 | 0.05 | 62 | 1022.1 |
| 20260505164015 | 16 | 198 | 20.9 | 33.8 | 0.00 | 0.05 | 0.05 | 62 | 1022.0 |
| 20260505163515 | 16 | 199 | 22.5 | 35.4 | 0.00 | 0.05 | 0.05 | 61 | 1022.0 |
| 20260505163015 | 16 | 202 | 20.9 | 37.0 | 0.00 | 0.05 | 0.05 | 63 | 1022.4 |
| 20260505162515 | 15 | 205 | 24.1 | 37.0 | 0.00 | 0.05 | 0.05 | 63 | 1022.3 |
| 20260505162015 | 15 | 203 | 20.9 | 33.8 | 0.00 | 0.05 | 0.05 | 64 | 1022.2 |
| 20260505161515 | 15 | 194 | 25.7 | 40.2 | 0.00 | 0.05 | 0.05 | 64 | 1022.2 |
| 20260505161015 | 15 | 208 | 19.3 | 30.6 | 0.00 | 0.05 | 0.05 | 66 | 1022.1 |
| 20260505160515 | 15 | 205 | 19.3 | 32.2 | 0.00 | 0.05 | 0.05 | 66 | 1021.9 |
| 20260505153015 | 14 | 207 | 12.9 | 22.5 | 0.00 | 0.05 | 0.05 | 69 | 1021.3 |
| 20260505152535 | 14 | 200 | 12.9 | 27.4 | 0.00 | 0.05 | 0.05 | 70 | 1021.2 |
| 20260505152015 | 13 | 202 | 12.9 | 22.5 | 0.00 | 0.05 | 0.05 | 71 | 1021.2 |
| 20260505151515 | 13 | 204 | 16.1 | 30.6 | 0.00 | 0.05 | 0.05 | 71 | 1021.3 |
| 20260505151035 | 13 | 202 | 14.5 | 24.1 | 0.00 | 0.05 | 0.05 | 73 | 1021.2 |
| 20260505150515 | 13 | 204 | 19.3 | 29.0 | 0.00 | 0.05 | 0.05 | 72 | 1021.1 |
| 20260505140515 | 12 | 177 | 1.6 | 6.4 | 0.05 | 0.05 | 0.05 | 84 | 1020.8 |
| 20260505125015 | 12 | 170 | 11.3 | 14.5 | 0.00 | 0.00 | 0.00 | 85 | 1021.1 |
| 20260505124515 | 12 | 163 | 9.7 | 16.1 | 0.00 | 0.00 | 0.00 | 88 | 1020.8 |
| 20260505124015 | 12 | 167 | 11.3 | 16.1 | 0.00 | 0.00 | 0.00 | 89 | 1020.8 |
| 20260505123555 | 12 | 182 | 9.7 | 14.5 | 0.00 | 0.00 | 0.00 | 90 | 1021.0 |
| 20260505123015 | 12 | 185 | 8.0 | 11.3 | 0.00 | 0.00 | 0.00 | 90 | 1021.3 |
| 20260505122515 | 12 | 202 | 8.0 | 12.9 | 0.00 | 0.00 | 0.00 | 90 | 1021.5 |
| 20260505122015 | 12 | 213 | 3.2 | 8.0 | 0.00 | 0.00 | 0.00 | 89 | 1021.2 |
| 20260505121515 | 12 | 221 | 1.6 | 3.2 | 0.00 | 0.00 | 0.00 | 88 | 1021.4 |
| 20260505121015 | 12 | 210 | 3.2 | 4.8 | 0.00 | 0.00 | 0.00 | 88 | 1021.5 |
| 20260505120515 | 12 | 194 | 1.6 | 3.2 | 0.00 | 0.00 | 0.00 | 88 | 1021.4 |
| 20260505120015 | 12 | 0.0 | 0.0 | 0.00 | 0.00 | 0.00 | 88 | 1021.7 | |
| 20260505115515 | 12 | 80 | 1.6 | 3.2 | 0.00 | 0.00 | 0.00 | 88 | 1021.7 |
| 20260505115015 | 12 | 77 | 4.8 | 6.4 | 0.00 | 0.00 | 0.00 | 88 | 1021.7 |
| 20260505114515 | 12 | 69 | 4.8 | 8.0 | 0.00 | 0.00 | 0.00 | 88 | 1021.8 |
| 20260505114055 | 12 | 45 | 4.8 | 9.7 | 0.00 | 0.00 | 0.00 | 88 | 1021.9 |
| 20260505113515 | 12 | 35 | 6.4 | 11.3 | 0.00 | 0.00 | 0.00 | 88 | 1021.8 |
| 20260505113015 | 12 | 48 | 6.4 | 11.3 | 0.00 | 0.00 | 0.00 | 89 | 1022.0 |
| 20260505112515 | 12 | 56 | 3.2 | 9.7 | 0.00 | 0.00 | 0.00 | 89 | 1022.3 |
| 20260505112015 | 12 | 34 | 8.0 | 12.9 | 0.00 | 0.00 | 0.00 | 87 | 1022.6 |
| 20260505111535 | 12 | 19 | 9.7 | 14.5 | 0.00 | 0.00 | 0.00 | 84 | 1023.1 |
| 20260505111015 | 13 | 11 | 3.2 | 6.4 | 0.00 | 0.00 | 0.00 | 81 | 1023.6 |
| 20260505110515 | 13 | 343 | 1.6 | 8.0 | 0.00 | 0.00 | 0.00 | 79 | 1023.8 |
| 20260505102055 | 13 | 324 | 11.3 | 20.9 | 0.00 | 0.00 | 0.00 | 79 | 1024.4 |
| 20260505101515 | 13 | 330 | 12.9 | 20.9 | 0.00 | 0.00 | 0.00 | 78 | 1024.4 |
| 20260505101015 | 13 | 324 | 12.9 | 24.1 | 0.00 | 0.00 | 0.00 | 78 | 1024.4 |
| 20260505100515 | 13 | 328 | 12.9 | 19.3 | 0.00 | 0.00 | 0.00 | 78 | 1024.4 |
| 20260505100015 | 13 | 332 | 11.3 | 19.3 | 0.00 | 0.00 | 0.00 | 78 | 1024.4 |
| 20260505095515 | 13 | 340 | 11.3 | 17.7 | 0.00 | 0.00 | 0.00 | 77 | 1024.4 |
| 20260505095015 | 13 | 342 | 9.7 | 16.1 | 0.00 | 0.00 | 0.00 | 76 | 1024.6 |
| 20260505094515 | 14 | 343 | 6.4 | 11.3 | 0.00 | 0.00 | 0.00 | 75 | 1024.7 |
| 20260505094015 | 14 | 353 | 3.2 | 6.4 | 0.00 | 0.00 | 0.00 | 75 | 1024.7 |
| 20260505093515 | 14 | 348 | 3.2 | 6.4 | 0.00 | 0.00 | 0.00 | 75 | 1024.8 |
| 20260505093015 | 14 | 341 | 4.8 | 11.3 | 0.00 | 0.00 | 0.00 | 75 | 1024.8 |
| 20260505092515 | 14 | 332 | 6.4 | 12.9 | 0.00 | 0.00 | 0.00 | 75 | 1024.9 |
| 20260505092015 | 14 | 324 | 6.4 | 12.9 | 0.00 | 0.00 | 0.00 | 74 | 1024.9 |
| 20260505091535 | 14 | 327 | 8.0 | 16.1 | 0.00 | 0.00 | 0.00 | 74 | 1024.7 |
| 20260505091015 | 14 | 324 | 8.0 | 16.1 | 0.00 | 0.00 | 0.00 | 74 | 1024.8 |
| 20260505090515 | 14 | 322 | 9.7 | 16.1 | 0.00 | 0.00 | 0.00 | 73 | 1024.9 |
| 20260505085515 | 14 | 327 | 9.7 | 14.5 | 0.00 | 0.00 | 0.00 | 73 | 1025.1 |
| 20260505085015 | 14 | 317 | 9.7 | 17.7 | 0.00 | 0.00 | 0.00 | 72 | 1025.3 |
| 20260505084535 | 14 | 312 | 8.0 | 14.5 | 0.00 | 0.00 | 0.00 | 73 | 1025.4 |
| 20260505084015 | 14 | 316 | 6.4 | 14.5 | 0.00 | 0.00 | 0.00 | 73 | 1025.3 |
| 20260505083515 | 14 | 313 | 6.4 | 14.5 | 0.00 | 0.00 | 0.00 | 72 | 1025.1 |
| 20260505083015 | 14 | 318 | 3.2 | 12.9 | 0.00 | 0.00 | 0.00 | 71 | 1025.0 |
| 20260505082515 | 14 | 336 | 0.0 | 4.8 | 0.00 | 0.00 | 0.00 | 71 | 1024.8 |
| 20260505082015 | 14 | 0.0 | 0.0 | 0.00 | 0.00 | 0.00 | 71 | 1024.9 | |
| 20260505081535 | 15 | 24 | 0.0 | 3.2 | 0.00 | 0.00 | 0.00 | 70 | 1025.2 |
| 20260505081015 | 15 | 0.0 | 0.0 | 0.00 | 0.00 | 0.00 | 68 | 1025.4 | |
| 20260505080515 | 15 | 324 | 1.6 | 8.0 | 0.00 | 0.00 | 0.00 | 68 | 1025.5 |
| 20260505080015 | 15 | 0.0 | 0.0 | 0.00 | 0.00 | 0.00 | 66 | 1025.4 | |
| 20260505075515 | 15 | 323 | 0.0 | 3.2 | 0.00 | 0.00 | 0.00 | 66 | 1025.2 |
| 20260505075035 | 15 | 314 | 3.2 | 11.3 | 0.00 | 0.00 | 0.00 | 64 | 1025.1 |
| 20260505074515 | 15 | 0.0 | 0.0 | 0.00 | 0.00 | 0.00 | 63 | 1025.0 | |
| 20260505074015 | 15 | 320 | 0.0 | 4.8 | 0.00 | 0.00 | 0.00 | 61 | 1025.0 |
| 20260505073515 | 15 | 344 | 3.2 | 11.3 | 0.00 | 0.00 | 0.00 | 60 | 1025.1 |
| 20260505073015 | 15 | 5 | 0.0 | 3.2 | 0.00 | 0.00 | 0.00 | 58 | 1025.1 |
| 20260505072555 | 15 | 0.0 | 0.0 | 0.00 | 0.00 | 0.00 | 58 | 1025.5 | |
| 20260505070015 | 15 | 49 | 0.0 | 8.0 | 0.00 | 0.00 | 0.00 | 58 | 1024.6 |
| 20260505065515 | 15 | 0.0 | 0.0 | 0.00 | 0.00 | 0.00 | 60 | 1024.8 | |
| 20260505065035 | 15 | 0.0 | 0.0 | 0.00 | 0.00 | 0.00 | 60 | 1024.9 | |
| 20260505064515 | 15 | 0.0 | 0.0 | 0.00 | 0.00 | 0.00 | 61 | 1024.9 | |
| 20260505064035 | 15 | 0.0 | 0.0 | 0.00 | 0.00 | 0.00 | 61 | 1024.8 | |
| 20260505063535 | 14 | 102 | 0.0 | 4.8 | 0.00 | 0.00 | 0.00 | 61 | 1024.6 |
| 20260505063035 | 14 | 96 | 1.6 | 3.2 | 0.00 | 0.00 | 0.00 | 62 | 1024.5 |
| 20260505062535 | 14 | 102 | 0.0 | 4.8 | 0.00 | 0.00 | 0.00 | 63 | 1024.5 |
| 20260505062035 | 14 | 104 | 3.2 | 6.4 | 0.00 | 0.00 | 0.00 | 63 | 1024.3 |
| 20260505061535 | 14 | 104 | 1.6 | 8.0 | 0.00 | 0.00 | 0.00 | 64 | 1024.4 |
| 20260505061015 | 14 | 79 | 0.0 | 3.2 | 0.00 | 0.00 | 0.00 | 63 | 1024.6 |
| 20260505060515 | 14 | 0.0 | 0.0 | 0.00 | 0.00 | 0.00 | 63 | 1024.6 | |
| 20260505060055 | 14 | 91 | 0.0 | 3.2 | 0.00 | 0.00 | 0.00 | 63 | 1024.3 |
| 20260505055516 | 14 | 0.0 | 0.0 | 0.00 | 0.00 | 0.00 | 62 | 1024.4 | |
| 20260505055015 | 14 | 0.0 | 0.0 | 0.00 | 0.00 | 0.00 | 59 | 1024.5 | |
| 20260505054515 | 14 | 0.0 | 0.0 | 0.00 | 0.00 | 0.00 | 58 | 1024.6 | |
| 20260505054015 | 14 | 0.0 | 0.0 | 0.00 | 0.00 | 0.00 | 59 | 1024.6 | |
| 20260505053515 | 15 | 0.0 | 0.0 | 0.00 | 0.00 | 0.00 | 58 | 1024.9 | |
| 20260505053015 | 15 | 0.0 | 0.0 | 0.00 | 0.00 | 0.00 | 57 | 1024.7 | |
| 20260505052535 | 15 | 0.0 | 0.0 | 0.00 | 0.00 | 0.00 | 57 | 1024.7 | |
| 20260505052015 | 15 | 0.0 | 0.0 | 0.00 | 0.00 | 0.00 | 57 | 1024.6 | |
| 20260505051515 | 15 | 0.0 | 0.0 | 0.00 | 0.00 | 0.00 | 56 | 1024.5 | |
| 20260505051015 | 15 | 19 | 0.0 | 1.6 | 0.00 | 0.00 | 0.00 | 56 | 1024.5 |
| 20260505050515 | 15 | 14 | 1.6 | 4.8 | 0.00 | 0.00 | 0.00 | 55 | 1024.6 |
| 20260505041515 | 16 | 342 | 9.7 | 17.7 | 0.00 | 0.00 | 0.00 | 50 | 1025.2 |
| 20260505041015 | 16 | 340 | 0.0 | 9.7 | 0.00 | 0.00 | 0.00 | 50 | 1025.3 |
| 20260505040515 | 16 | 306 | 1.6 | 4.8 | 0.00 | 0.00 | 0.00 | 49 | 1025.3 |
| 20260505040015 | 16 | 316 | 0.0 | 6.4 | 0.00 | 0.00 | 0.00 | 48 | 1025.1 |
| 20260505035515 | 16 | 343 | 4.8 | 11.3 | 0.00 | 0.00 | 0.00 | 47 | 1024.8 |
| 20260505035015 | 16 | 349 | 6.4 | 16.1 | 0.00 | 0.00 | 0.00 | 48 | 1024.4 |
| 20260505034515 | 16 | 355 | 0.0 | 3.2 | 0.00 | 0.00 | 0.00 | 48 | 1024.5 |
| 20260505034015 | 16 | 349 | 1.6 | 9.7 | 0.00 | 0.00 | 0.00 | 48 | 1024.6 |
| 20260505033515 | 16 | 327 | 0.0 | 3.2 | 0.00 | 0.00 | 0.00 | 48 | 1024.4 |
| 20260505033015 | 16 | 0.0 | 0.0 | 0.00 | 0.00 | 0.00 | 47 | 1023.9 | |
| 20260505032515 | 16 | 0.0 | 0.0 | 0.00 | 0.00 | 0.00 | 47 | 1024.0 | |
| 20260505032015 | 16 | 0.0 | 0.0 | 0.00 | 0.00 | 0.00 | 46 | 1024.0 | |
| 20260505031555 | 17 | 0.0 | 0.0 | 0.00 | 0.00 | 0.00 | 46 | 1023.9 | |
| 20260505031015 | 17 | 26 | 1.6 | 6.4 | 0.00 | 0.00 | 0.00 | 46 | 1023.7 |
| 20260505030515 | 17 | 9 | 1.6 | 9.7 | 0.00 | 0.00 | 0.00 | 46 | 1023.6 |
| 20260505030015 | 17 | 10 | 8.0 | 14.5 | 0.00 | 0.00 | 0.00 | 45 | 1023.4 |
| 20260505025515 | 17 | 358 | 8.0 | 16.1 | 0.00 | 0.00 | 0.00 | 44 | 1023.4 |
| 20260505025035 | 17 | 352 | 9.7 | 19.3 | 0.00 | 0.00 | 0.00 | 44 | 1023.2 |
| 20260505024515 | 17 | 358 | 11.3 | 17.7 | 0.00 | 0.00 | 0.00 | 44 | 1023.1 |
| 20260505024015 | 17 | 9 | 9.7 | 16.1 | 0.00 | 0.00 | 0.00 | 44 | 1023.1 |
| 20260505023515 | 17 | 355 | 9.7 | 14.5 | 0.00 | 0.00 | 0.00 | 43 | 1023.1 |
| 20260505023016 | 17 | 352 | 12.9 | 19.3 | 0.00 | 0.00 | 0.00 | 43 | 1023.1 |
| 20260505022515 | 17 | 352 | 11.3 | 17.7 | 0.00 | 0.00 | 0.00 | 43 | 1023.2 |
| 20260505022015 | 17 | 345 | 9.7 | 17.7 | 0.00 | 0.00 | 0.00 | 43 | 1023.3 |
| 20260505021515 | 17 | 337 | 12.9 | 22.5 | 0.00 | 0.00 | 0.00 | 42 | 1023.3 |
| 20260505021035 | 17 | 338 | 16.1 | 30.6 | 0.00 | 0.00 | 0.00 | 42 | 1023.3 |
| 20260505020515 | 18 | 335 | 16.1 | 27.4 | 0.00 | 0.00 | 0.00 | 41 | 1023.4 |
| 20260505020035 | 18 | 333 | 22.5 | 38.6 | 0.00 | 0.00 | 0.00 | 37 | 1022.9 |
| 20260505015515 | 19 | 322 | 19.3 | 38.6 | 0.00 | 0.00 | 0.00 | 33 | 1022.8 |
| 20260505015015 | 20 | 315 | 17.7 | 30.6 | 0.00 | 0.00 | 0.00 | 32 | 1022.9 |
| 20260505014515 | 20 | 313 | 19.3 | 37.0 | 0.00 | 0.00 | 0.00 | 32 | 1022.9 |
| 20260505014015 | 20 | 313 | 12.9 | 24.1 | 0.00 | 0.00 | 0.00 | 33 | 1022.9 |
| 20260505013515 | 21 | 307 | 14.5 | 25.7 | 0.00 | 0.00 | 0.00 | 33 | 1023.2 |
| 20260505013015 | 21 | 320 | 11.3 | 20.9 | 0.00 | 0.00 | 0.00 | 32 | 1023.2 |
| 20260505012515 | 21 | 317 | 11.3 | 22.5 | 0.00 | 0.00 | 0.00 | 33 | 1023.2 |
| 20260505012055 | 21 | 316 | 9.7 | 19.3 | 0.00 | 0.00 | 0.00 | 33 | 1023.2 |
| 20260505011515 | 21 | 317 | 9.7 | 17.7 | 0.00 | 0.00 | 0.00 | 33 | 1023.2 |
| 20260505011015 | 21 | 310 | 9.7 | 19.3 | 0.00 | 0.00 | 0.00 | 33 | 1023.3 |
| 20260505010515 | 21 | 314 | 11.3 | 20.9 | 0.00 | 0.00 | 0.00 | 32 | 1023.4 |
| 20260505010035 | 21 | 318 | 9.7 | 19.3 | 0.00 | 0.00 | 0.00 | 32 | 1023.4 |
| 20260505005555 | 21 | 303 | 14.5 | 22.5 | 0.00 | 0.00 | 0.00 | 31 | 1023.4 |
| 20260505005015 | 21 | 306 | 12.9 | 19.3 | 0.00 | 0.00 | 0.00 | 32 | 1023.3 |
| 20260505004515 | 21 | 307 | 12.9 | 24.1 | 0.00 | 0.00 | 0.00 | 31 | 1023.4 |
| 20260505004035 | 21 | 301 | 16.1 | 29.0 | 0.00 | 0.00 | 0.00 | 31 | 1023.4 |
| 20260505003515 | 21 | 294 | 17.7 | 29.0 | 0.00 | 0.00 | 0.00 | 30 | 1023.5 |
| 20260505003015 | 21 | 298 | 17.7 | 37.0 | 0.00 | 0.00 | 0.00 | 30 | 1023.6 |